createdAt,value
2022-12-13T00:03:34.222Z,18.55
2022-12-13T00:07:38.499Z,14.85
2022-12-13T00:11:44.640Z,14.05
2022-12-13T00:15:58.701Z,15.45
2022-12-13T00:20:03.894Z,17.80
2022-12-13T00:28:14.185Z,17.58
2022-12-13T00:32:18.561Z,17.58
2022-12-13T00:36:25.705Z,16.92
2022-12-13T00:40:30.681Z,15.90
2022-12-13T00:44:36.415Z,15.57
2022-12-13T00:48:40.475Z,16.80
2022-12-13T00:52:44.918Z,16.42
2022-12-13T00:56:48.959Z,15.65
2022-12-13T01:00:55.840Z,15.38
2022-12-13T01:05:00.144Z,13.90
2022-12-13T01:09:04.630Z,13.00
2022-12-13T01:13:09.037Z,14.45
2022-12-13T01:17:14.688Z,15.02
2022-12-13T01:21:20.485Z,14.18
2022-12-13T01:25:27.042Z,13.98
2022-12-13T01:29:30.996Z,16.55
2022-12-13T01:33:36.994Z,16.67
2022-12-13T01:37:41.142Z,13.60
2022-12-13T01:41:46.373Z,19.33
2022-12-13T01:49:56.966Z,11.32
2022-12-13T01:54:05.755Z,14.95
2022-12-13T01:58:10.369Z,15.32
2022-12-13T02:02:14.684Z,16.17
2022-12-13T02:06:22.997Z,14.70
2022-12-13T02:10:27.918Z,12.80
2022-12-13T02:14:33.396Z,14.73
2022-12-13T02:18:50.125Z,14.90
2022-12-13T02:23:11.493Z,14.80
2022-12-13T02:27:30.708Z,13.45
2022-12-13T02:31:43.221Z,13.60
2022-12-13T02:35:54.083Z,13.13
2022-12-13T02:40:01.661Z,14.15
2022-12-13T02:44:21.876Z,15.10
2022-12-13T02:52:46.862Z,13.43
2022-12-13T02:56:55.586Z,14.85
2022-12-13T03:01:27.839Z,11.50
2022-12-13T03:06:09.952Z,16.58
2022-12-13T03:10:18.909Z,14.38
2022-12-13T03:14:23.428Z,14.75
2022-12-13T03:18:28.947Z,15.77
2022-12-13T03:22:34.853Z,14.73
2022-12-13T03:26:40.550Z,12.93
2022-12-13T03:30:43.677Z,12.75
2022-12-13T03:34:50.853Z,8.40
2022-12-13T03:39:03.595Z,15.35
2022-12-13T03:43:08.757Z,13.82
2022-12-13T03:47:12.072Z,13.40
2022-12-13T03:51:15.321Z,13.50
2022-12-13T03:55:18.511Z,11.60
2022-12-13T03:59:22.869Z,16.00
2022-12-13T04:03:26.299Z,13.90
2022-12-13T04:07:34.401Z,13.90
2022-12-13T04:11:54.748Z,18.92
2022-12-13T04:15:59.045Z,14.32
2022-12-13T04:20:02.308Z,17.25
2022-12-13T04:24:06.127Z,17.02
2022-12-13T05:32:24.821Z,11.73
2022-12-13T07:37:55.325Z,14.60
2022-12-13T08:20:33.892Z,13.57
2022-12-13T08:42:00.416Z,12.75
2022-12-13T08:46:19.354Z,11.13
2022-12-13T08:50:23.743Z,11.55
2022-12-13T08:54:31.752Z,9.43
2022-12-13T08:58:36.301Z,9.95
2022-12-13T09:02:40.461Z,10.85
2022-12-13T09:06:44.963Z,8.85
2022-12-13T09:10:49.953Z,9.40
2022-12-13T09:15:03.856Z,9.38
2022-12-13T09:19:26.305Z,9.90
2022-12-13T09:23:31.551Z,7.38
2022-12-13T09:27:40.723Z,6.57
2022-12-13T09:31:52.688Z,7.78
2022-12-13T09:36:01.351Z,9.23
2022-12-13T11:10:27.553Z,10.68
2022-12-13T11:48:50.945Z,6.75
2022-12-13T11:52:55.157Z,6.05
2022-12-13T11:57:01.061Z,5.65
2022-12-13T12:01:09.532Z,5.50
2022-12-13T12:05:28.216Z,6.35
2022-12-13T12:13:51.570Z,6.95
2022-12-13T12:17:55.560Z,5.55
2022-12-13T12:22:14.185Z,5.53
2022-12-13T12:26:19.234Z,5.53
2022-12-13T12:30:24.276Z,5.75
2022-12-13T12:34:34.780Z,6.80
2022-12-13T12:38:53.281Z,6.13
2022-12-13T12:43:16.711Z,6.32
2022-12-13T12:47:47.979Z,7.75
2022-12-13T12:51:57.110Z,6.75
2022-12-13T12:56:10.579Z,7.32
2022-12-13T13:00:15.644Z,6.95
2022-12-13T13:04:22.087Z,6.00
2022-12-13T13:08:30.085Z,7.25
2022-12-13T13:12:34.995Z,6.15
2022-12-13T13:16:45.853Z,5.40
2022-12-13T13:21:27.282Z,6.72
2022-12-13T13:25:32.442Z,6.15
2022-12-13T13:29:38.704Z,6.85
2022-12-13T13:33:48.523Z,5.18
2022-12-13T13:42:16.921Z,6.75
2022-12-13T13:46:21.021Z,7.35
2022-12-13T13:59:15.699Z,6.40
2022-12-13T14:03:50.821Z,6.55
2022-12-13T14:08:20.455Z,5.90
2022-12-13T14:12:46.298Z,6.50
2022-12-13T14:21:20.654Z,5.70
2022-12-13T14:25:52.580Z,6.22
2022-12-13T14:29:58.154Z,6.15
2022-12-13T14:34:03.053Z,5.68
2022-12-13T14:38:13.551Z,5.80
2022-12-13T14:42:24.406Z,6.22
2022-12-13T14:46:27.197Z,4.53
2022-12-13T14:50:35.372Z,5.20
2022-12-13T14:54:45.553Z,5.47
2022-12-13T14:58:54.269Z,5.60
2022-12-13T15:02:59.832Z,3.35
2022-12-13T15:07:07.656Z,6.75
2022-12-13T15:11:11.967Z,5.68
2022-12-13T15:15:24.401Z,6.55
2022-12-13T15:19:32.991Z,5.72
2022-12-13T15:23:48.906Z,6.28
2022-12-13T15:27:55.747Z,7.15
2022-12-13T15:31:59.621Z,7.07
2022-12-13T15:36:06.865Z,4.72
2022-12-13T15:40:14.376Z,5.07
2022-12-13T15:44:21.377Z,7.13
2022-12-13T15:48:26.765Z,6.38
2022-12-13T15:52:33.381Z,5.90
2022-12-13T15:56:38.321Z,6.10
2022-12-13T16:09:19.175Z,6.47
2022-12-13T16:13:26.850Z,6.85
2022-12-13T16:17:32.114Z,6.38
2022-12-13T16:30:15.432Z,6.60
2022-12-13T16:34:20.278Z,7.60
2022-12-13T17:12:45.870Z,7.22
2022-12-13T18:38:26.183Z,7.97
2022-12-13T18:42:32.360Z,8.48
2022-12-13T18:46:37.441Z,7.72
2022-12-13T18:50:45.578Z,7.78
2022-12-13T19:26:47.431Z,7.38
2022-12-13T19:30:50.250Z,8.07
2022-12-13T19:34:53.255Z,8.05
2022-12-13T19:38:56.962Z,8.05
2022-12-13T19:43:01.553Z,7.72
2022-12-13T19:47:04.587Z,7.50
2022-12-13T19:51:08.766Z,7.43
2022-12-13T19:55:12.023Z,6.53
2022-12-13T19:59:16.503Z,7.88
2022-12-13T20:03:19.682Z,8.38
2022-12-13T20:07:23.920Z,8.02
2022-12-13T20:11:27.113Z,6.90
2022-12-13T20:15:31.943Z,7.88
2022-12-13T20:23:38.223Z,7.15
2022-12-13T20:27:41.945Z,7.15
2022-12-13T20:31:48.294Z,7.07
2022-12-13T20:44:30.193Z,7.47
2022-12-13T20:48:37.390Z,6.93
2022-12-13T20:52:40.661Z,7.15
2022-12-13T20:56:43.959Z,8.00
2022-12-13T21:00:47.245Z,5.60
2022-12-13T21:04:52.038Z,6.75
2022-12-13T21:08:56.782Z,7.35
2022-12-13T21:13:00.144Z,8.07
2022-12-13T21:17:04.716Z,7.57
2022-12-13T21:21:09.828Z,7.35
2022-12-13T21:25:14.136Z,7.55
2022-12-13T21:29:17.579Z,7.75
2022-12-13T21:33:20.863Z,7.68
2022-12-13T21:37:25.620Z,6.78
2022-12-13T21:41:29.762Z,6.88
2022-12-13T21:45:34.826Z,7.13
2022-12-13T21:49:38.628Z,8.20
2022-12-13T21:53:44.229Z,8.02
2022-12-13T21:58:07.928Z,7.43
2022-12-13T22:02:14.889Z,7.95
2022-12-13T22:06:18.378Z,7.20
2022-12-13T22:10:22.963Z,7.93
2022-12-13T22:14:26.427Z,6.97
2022-12-13T22:18:30.520Z,7.30
2022-12-13T22:35:26.610Z,9.18
2022-12-13T22:43:48.555Z,7.47
2022-12-13T22:47:51.349Z,7.93
2022-12-13T23:39:17.309Z,6.50
2022-12-13T23:43:20.324Z,7.90
2022-12-13T23:47:23.608Z,8.07
2022-12-13T23:51:27.508Z,8.75
2022-12-13T23:55:32.104Z,7.75
2022-12-13T23:59:36.384Z,7.82
